Almond, Wisconsin
Current Conditions -  °F | °C
As of 1:11 PM on Thursday 23 Oct 2014 (Local Time) from KY50 Reporting Station
Light Rain Light Rain  
Wind Chill: 44°   Ceiling: 700
Heat Index: 46°   Visibility: 2mi
Dew Point: 45°   Wind: 6mph
Humidity: 93%   Direction: 180°S
Pressure: 30.08"   Gusts: NA
Location:  44.26°N, 89.41°W
Report Text: KY50 231811Z AUTO 18005KT 2SM -RA BR SCT001 BKN007 OVC024 08/07 A3008 RMK AO2 TSNO CIG 003V010 P0000
Loading
Personal Weather Stations






























Interactive Weather Map
Tropical Storm Tracking
New forecast layout! Learn more

10-Day Weather Forecast

Advertisements
Track Severe Weather on mobile